createdAt,value
2022-09-27T00:03:56.639Z,73.68
2022-09-27T00:06:34.904Z,78.00
2022-09-27T00:09:06.139Z,71.55
2022-09-27T00:11:38.203Z,89.85
2022-09-27T00:14:09.092Z,73.40
2022-09-27T00:16:40.567Z,69.82
2022-09-27T00:19:16.598Z,76.03
2022-09-27T00:21:47.355Z,80.10
2022-09-27T00:24:19.547Z,71.82
2022-09-27T00:26:50.179Z,97.15
2022-09-27T00:29:20.708Z,81.32
2022-09-27T00:31:50.337Z,77.15
2022-09-27T00:34:27.616Z,84.78
2022-09-27T00:36:56.831Z,71.90
2022-09-27T00:39:26.358Z,77.80
2022-09-27T00:41:55.841Z,74.85
2022-09-27T00:44:34.632Z,79.82
2022-09-27T00:47:24.133Z,81.22
2022-09-27T00:50:04.197Z,78.45
2022-09-27T00:53:03.164Z,78.43
2022-09-27T00:55:42.340Z,78.25
2022-09-27T00:58:14.725Z,76.22
2022-09-27T01:00:51.464Z,78.60
2022-09-27T01:03:45.946Z,83.78
2022-09-27T01:06:20.725Z,83.50
2022-09-27T01:08:52.367Z,74.28
2022-09-27T01:11:41.193Z,80.88
2022-09-27T01:14:30.304Z,88.28
2022-09-27T01:17:03.595Z,88.43
2022-09-27T01:20:17.176Z,73.60
2022-09-27T01:22:56.584Z,84.28
2022-09-27T01:25:52.024Z,81.15
2022-09-27T01:29:00.590Z,77.22
2022-09-27T01:31:34.459Z,92.13
2022-09-27T01:34:10.378Z,82.18
2022-09-27T01:37:09.883Z,86.60
2022-09-27T01:39:55.943Z,88.13
2022-09-27T01:43:01.408Z,80.70
2022-09-27T01:46:00.209Z,97.97
2022-09-27T01:48:53.666Z,91.60
2022-09-27T01:51:38.009Z,98.65
2022-09-27T01:54:10.486Z,90.90
2022-09-27T01:56:53.426Z,104.38
2022-09-27T01:59:43.466Z,109.68
2022-09-27T02:02:57.153Z,108.68
2022-09-27T02:05:44.352Z,113.25
2022-09-27T02:08:43.045Z,106.25
2022-09-27T02:11:23.344Z,108.07
2022-09-27T02:14:13.111Z,125.72
2022-09-27T02:17:01.183Z,160.60
2022-09-27T02:19:36.620Z,160.93
2022-09-27T02:22:12.567Z,142.02
2022-09-27T02:24:45.738Z,158.50
2022-09-27T02:27:22.948Z,144.88
2022-09-27T02:30:02.555Z,151.13
2022-09-27T02:32:35.874Z,137.68
2022-09-27T02:37:40.537Z,162.57
2022-09-27T02:40:11.379Z,160.85
2022-09-27T02:42:44.660Z,166.70
2022-09-27T02:45:17.388Z,163.82
2022-09-27T02:48:21.637Z,167.43
2022-09-27T02:51:11.143Z,149.98
2022-09-27T02:53:59.005Z,155.38
2022-09-27T02:57:07.337Z,157.27
2022-09-27T03:00:13.423Z,161.95
2022-09-27T03:03:21.193Z,149.63
2022-09-27T03:06:06.979Z,141.82
2022-09-27T03:08:38.610Z,132.33
2022-09-27T03:14:01.450Z,150.32
2022-09-27T03:16:30.739Z,136.80
2022-09-27T03:19:20.513Z,114.13
2022-09-27T03:22:10.850Z,100.90
2022-09-27T03:24:40.792Z,113.28
2022-09-27T03:27:11.743Z,121.80
2022-09-27T03:29:41.718Z,115.18
2022-09-27T03:32:12.717Z,100.32
2022-09-27T03:35:11.291Z,95.93
2022-09-27T03:37:42.278Z,82.22
2022-09-27T03:40:13.990Z,87.38
2022-09-27T03:42:48.856Z,89.72
2022-09-27T03:45:20.699Z,83.78
2022-09-27T03:47:50.549Z,79.80
2022-09-27T03:50:21.164Z,95.90
2022-09-27T03:52:51.005Z,70.70
2022-09-27T03:55:21.077Z,72.65
2022-09-27T03:57:51.200Z,75.00
2022-09-27T04:00:21.856Z,65.68
2022-09-27T04:02:52.069Z,78.13
2022-09-27T04:05:25.440Z,73.15
2022-09-27T04:08:01.223Z,111.75
2022-09-27T04:10:33.716Z,97.47
2022-09-27T04:13:04.073Z,89.45
2022-09-27T04:15:40.980Z,89.63
2022-09-27T04:18:28.966Z,78.53
2022-09-27T04:21:17.246Z,59.45
2022-09-27T04:23:53.040Z,75.78
2022-09-27T04:26:27.163Z,63.00
2022-09-27T04:29:13.937Z,60.08
2022-09-27T04:31:50.656Z,42.22
2022-09-27T04:34:46.366Z,46.80
2022-09-27T04:37:23.122Z,53.20
2022-09-27T04:39:56.990Z,52.38
2022-09-27T04:42:28.773Z,51.05
2022-09-27T04:44:58.117Z,53.75
2022-09-27T04:47:27.441Z,53.92
2022-09-27T04:49:56.544Z,50.35
2022-09-27T04:52:25.840Z,51.33
2022-09-27T04:54:57.693Z,39.90
2022-09-27T04:57:27.226Z,65.55
2022-09-27T04:59:56.330Z,34.95
2022-09-27T05:02:26.187Z,27.60
2022-09-27T05:07:47.347Z,24.55
2022-09-27T05:10:28.259Z,25.35
2022-09-27T05:12:57.624Z,32.22
2022-09-27T05:15:26.922Z,41.92
2022-09-27T05:18:19.330Z,44.63
2022-09-27T05:21:07.115Z,29.73
2022-09-27T05:23:44.655Z,38.35
2022-09-27T05:26:16.749Z,41.03
2022-09-27T05:28:48.299Z,36.47
2022-09-27T05:33:47.337Z,42.58
2022-09-27T05:36:33.607Z,44.13
2022-09-27T05:39:03.022Z,48.65
2022-09-27T05:41:33.764Z,36.47
2022-09-27T05:44:03.363Z,31.08
2022-09-27T05:46:32.505Z,32.13
2022-09-27T05:49:01.963Z,32.75
2022-09-27T05:51:31.636Z,35.45
2022-09-27T05:54:00.868Z,35.13
2022-09-27T05:56:31.313Z,26.65
2022-09-27T05:59:23.695Z,34.70
2022-09-27T06:02:13.631Z,35.72
2022-09-27T06:05:04.691Z,74.35
2022-09-27T06:08:06.120Z,28.30
2022-09-27T06:10:42.882Z,31.42
2022-09-27T06:13:16.461Z,34.80
2022-09-27T06:15:48.290Z,25.63
2022-09-27T06:18:19.177Z,46.53
2022-09-27T06:20:52.457Z,35.22
2022-09-27T06:23:24.865Z,23.60
2022-09-27T06:25:56.543Z,35.60
2022-09-27T06:29:05.100Z,34.42
2022-09-27T06:31:36.667Z,22.92
2022-09-27T06:34:25.958Z,33.75
2022-09-27T06:36:56.955Z,29.35
2022-09-27T06:39:28.016Z,24.33
2022-09-27T06:42:29.083Z,20.45
2022-09-27T06:45:21.572Z,21.75
2022-09-27T06:48:26.076Z,32.25
2022-09-27T06:51:01.727Z,26.73
2022-09-27T06:53:31.175Z,32.90
2022-09-27T06:56:02.282Z,31.67
2022-09-27T06:59:00.482Z,37.10
2022-09-27T07:01:53.770Z,28.52
2022-09-27T07:04:41.760Z,23.17
2022-09-27T07:07:33.781Z,27.80
2022-09-27T07:10:09.004Z,19.33
2022-09-27T07:12:40.479Z,29.98
2022-09-27T07:15:11.541Z,23.13
2022-09-27T07:17:41.641Z,29.08
2022-09-27T07:20:11.560Z,28.08
2022-09-27T07:22:46.430Z,29.58
2022-09-27T07:25:16.625Z,37.33
2022-09-27T07:27:46.379Z,31.75
2022-09-27T07:30:16.115Z,27.33
2022-09-27T07:32:46.075Z,33.30
2022-09-27T07:35:16.560Z,41.42
2022-09-27T07:37:46.504Z,27.30
2022-09-27T07:40:16.639Z,33.20
2022-09-27T07:43:00.398Z,31.23
2022-09-27T07:45:34.424Z,28.63
2022-09-27T07:48:21.543Z,30.60
2022-09-27T07:51:01.351Z,30.88
2022-09-27T07:56:48.519Z,52.10
2022-09-27T07:59:20.049Z,47.60
2022-09-27T08:01:49.752Z,39.90
2022-09-27T08:04:19.175Z,36.17
2022-09-27T08:06:49.042Z,123.05
2022-09-27T08:09:19.178Z,49.90
2022-09-27T08:11:49.676Z,41.05
2022-09-27T08:14:19.743Z,35.78
2022-09-27T08:16:52.717Z,35.28
2022-09-27T08:19:31.183Z,35.42
2022-09-27T08:22:06.149Z,43.58
2022-09-27T08:24:43.313Z,32.42
2022-09-27T08:27:31.719Z,35.25
2022-09-27T08:30:05.118Z,35.90
2022-09-27T08:32:34.900Z,30.13
2022-09-27T08:35:05.050Z,118.10
2022-09-27T08:37:34.425Z,75.88
2022-09-27T08:40:04.533Z,35.72
2022-09-27T08:43:00.331Z,49.85
2022-09-27T08:45:40.501Z,34.90
2022-09-27T08:48:12.744Z,35.10
2022-09-27T08:50:47.526Z,36.67
2022-09-27T08:53:20.608Z,31.95
2022-09-27T08:55:57.902Z,47.47
2022-09-27T08:58:38.874Z,40.67
2022-09-27T09:01:19.125Z,45.38
2022-09-27T09:04:05.624Z,74.40
2022-09-27T09:07:14.679Z,57.20
2022-09-27T09:09:55.978Z,52.17
2022-09-27T09:12:47.953Z,42.83
2022-09-27T09:15:21.255Z,38.17
2022-09-27T09:18:21.720Z,46.63
2022-09-27T09:22:01.497Z,36.72
2022-09-27T09:24:34.185Z,34.13
2022-09-27T09:27:31.860Z,36.53
2022-09-27T09:30:08.267Z,48.45
2022-09-27T09:33:03.760Z,79.45
2022-09-27T09:35:56.129Z,50.78
2022-09-27T09:38:51.940Z,49.15
2022-09-27T09:41:24.709Z,41.10
2022-09-27T09:46:47.920Z,33.38
2022-09-27T09:49:24.148Z,36.38
2022-09-27T09:52:09.273Z,41.55
2022-09-27T09:54:52.400Z,34.20
2022-09-27T09:57:33.562Z,39.72
2022-09-27T10:00:22.942Z,40.38
2022-09-27T10:02:57.203Z,50.42
2022-09-27T10:05:29.901Z,51.33
2022-09-27T10:08:09.000Z,35.97
2022-09-27T10:10:38.607Z,36.88
2022-09-27T10:13:36.877Z,38.58
2022-09-27T10:16:14.231Z,47.38
2022-09-27T10:18:47.722Z,53.00
2022-09-27T10:21:35.547Z,50.38
2022-09-27T10:24:18.768Z,45.38
2022-09-27T10:27:10.422Z,69.93
2022-09-27T10:29:42.070Z,63.08
2022-09-27T10:32:26.480Z,63.55
2022-09-27T10:35:32.166Z,49.13
2022-09-27T10:38:22.850Z,43.63
2022-09-27T10:41:00.121Z,42.08
2022-09-27T10:43:36.314Z,39.17
2022-09-27T10:46:34.534Z,36.40
2022-09-27T10:49:29.731Z,38.08
2022-09-27T10:52:07.784Z,37.88
2022-09-27T10:54:39.111Z,36.30
2022-09-27T10:57:31.134Z,31.30
2022-09-27T11:00:21.431Z,34.47
2022-09-27T11:02:58.081Z,38.15
2022-09-27T11:05:40.594Z,39.22
2022-09-27T11:08:34.727Z,34.05
2022-09-27T11:11:29.585Z,37.83
2022-09-27T11:14:06.210Z,41.90
2022-09-27T11:17:00.125Z,36.15
2022-09-27T11:19:59.531Z,41.42
2022-09-27T11:22:38.900Z,34.17
2022-09-27T11:25:22.415Z,73.95
2022-09-27T11:28:10.534Z,64.60
2022-09-27T11:31:04.359Z,80.45
2022-09-27T11:33:59.534Z,91.68
2022-09-27T11:36:53.702Z,97.22
2022-09-27T11:39:44.786Z,242.63
2022-09-27T11:42:35.596Z,95.85
2022-09-27T11:45:41.067Z,143.00
2022-09-27T11:48:33.033Z,68.45
2022-09-27T11:51:28.940Z,87.00
2022-09-27T11:54:26.868Z,163.50
2022-09-27T11:57:01.969Z,81.72
2022-09-27T11:59:41.077Z,125.13
2022-09-27T12:02:13.631Z,75.50
2022-09-27T12:04:54.957Z,108.90
2022-09-27T12:07:38.962Z,111.25
2022-09-27T12:10:16.300Z,131.75
2022-09-27T12:12:52.745Z,90.78
2022-09-27T12:15:31.191Z,75.55
2022-09-27T12:18:21.410Z,56.05
2022-09-27T12:20:52.693Z,88.13
2022-09-27T12:23:42.130Z,95.25
2022-09-27T12:26:41.176Z,93.35
2022-09-27T12:29:22.109Z,105.10
2022-09-27T12:32:11.470Z,82.28
2022-09-27T12:35:01.947Z,112.32
2022-09-27T12:37:47.264Z,96.05
2022-09-27T12:40:40.223Z,45.88
2022-09-27T12:43:36.389Z,113.85
2022-09-27T12:46:42.137Z,119.20
2022-09-27T12:49:37.872Z,100.95
2022-09-27T12:52:13.274Z,153.82
2022-09-27T12:54:54.415Z,99.43
2022-09-27T12:57:23.630Z,131.65
2022-09-27T13:00:11.537Z,148.48
2022-09-27T13:03:15.262Z,141.10
2022-09-27T13:06:01.054Z,133.43
2022-09-27T13:09:14.306Z,292.48
2022-09-27T13:11:56.547Z,162.68
2022-09-27T13:14:32.958Z,183.52
2022-09-27T13:17:03.528Z,176.23
2022-09-27T13:19:40.784Z,135.85
2022-09-27T13:22:39.947Z,114.70
2022-09-27T13:26:04.995Z,108.75
2022-09-27T13:28:59.206Z,110.68
2022-09-27T13:31:56.683Z,107.63
2022-09-27T13:34:57.621Z,133.15
2022-09-27T13:37:47.479Z,91.55
2022-09-27T13:40:20.680Z,78.95
2022-09-27T13:43:12.330Z,64.03
2022-09-27T13:45:57.014Z,200.13
2022-09-27T13:48:52.271Z,125.32
2022-09-27T13:51:34.970Z,88.07
2022-09-27T13:54:28.843Z,84.82
2022-09-27T13:56:58.533Z,72.55
2022-09-27T13:59:33.193Z,75.78
2022-09-27T14:02:33.248Z,88.53
2022-09-27T14:05:04.516Z,127.43
2022-09-27T14:07:43.773Z,116.40
2022-09-27T14:10:19.747Z,92.47
2022-09-27T14:12:51.118Z,137.00
2022-09-27T14:15:39.587Z,107.85
2022-09-27T14:18:13.462Z,121.45
2022-09-27T14:20:54.177Z,118.90
2022-09-27T14:23:43.105Z,104.63
2022-09-27T14:26:31.157Z,113.00
2022-09-27T14:29:00.937Z,81.75
2022-09-27T14:31:34.787Z,95.43
2022-09-27T14:34:09.785Z,88.03
2022-09-27T14:37:03.024Z,90.85
2022-09-27T14:39:39.431Z,108.80
2022-09-27T14:42:26.244Z,86.05
2022-09-27T14:45:02.100Z,93.75
2022-09-27T14:47:32.075Z,113.70
2022-09-27T14:50:34.091Z,134.48
2022-09-27T14:53:06.363Z,130.70
2022-09-27T14:58:06.681Z,93.05
2022-09-27T15:00:38.429Z,72.57
2022-09-27T15:03:11.648Z,87.25
2022-09-27T15:05:44.435Z,89.15
2022-09-27T15:08:16.803Z,101.07
2022-09-27T15:13:20.730Z,99.55
2022-09-27T15:15:50.738Z,106.03
2022-09-27T15:18:46.680Z,118.72
2022-09-27T15:21:38.954Z,78.88
2022-09-27T15:24:37.407Z,70.43
2022-09-27T15:27:23.497Z,79.90
2022-09-27T15:29:56.051Z,69.93
2022-09-27T15:32:31.106Z,80.32
2022-09-27T15:35:11.878Z,63.28
2022-09-27T15:37:42.877Z,72.28
2022-09-27T15:40:19.876Z,63.33
2022-09-27T15:43:02.645Z,63.05
2022-09-27T15:45:41.183Z,64.88
2022-09-27T15:48:21.152Z,69.97
2022-09-27T15:50:54.378Z,69.78
2022-09-27T15:53:55.184Z,58.78
2022-09-27T15:56:24.722Z,63.70
2022-09-27T15:58:54.941Z,68.07
2022-09-27T16:01:26.722Z,58.50
2022-09-27T16:04:01.532Z,67.95
2022-09-27T16:06:31.576Z,59.05
2022-09-27T16:09:03.863Z,63.10
2022-09-27T16:14:02.531Z,56.70
2022-09-27T16:16:32.132Z,56.35
2022-09-27T16:19:01.760Z,70.65
2022-09-27T16:21:33.973Z,82.35
2022-09-27T16:24:06.341Z,91.63
2022-09-27T16:26:37.005Z,70.15
2022-09-27T16:29:13.692Z,60.20
2022-09-27T16:31:44.130Z,60.75
2022-09-27T16:34:19.084Z,63.60
2022-09-27T16:36:51.740Z,60.92
2022-09-27T16:39:27.155Z,55.05
2022-09-27T16:44:25.683Z,57.17
2022-09-27T16:46:55.422Z,68.32
2022-09-27T16:49:43.023Z,67.13
2022-09-27T16:52:12.569Z,57.60
2022-09-27T16:54:43.648Z,61.83
2022-09-27T16:57:14.541Z,73.03
2022-09-27T16:59:44.902Z,68.00
2022-09-27T17:02:14.719Z,66.35
2022-09-27T17:04:46.613Z,61.60
2022-09-27T17:07:16.320Z,56.60
2022-09-27T17:09:46.904Z,70.10
2022-09-27T17:12:17.296Z,77.70
2022-09-27T17:14:46.958Z,68.65
2022-09-27T17:17:16.950Z,63.03
2022-09-27T17:19:46.663Z,71.55
2022-09-27T17:22:16.232Z,59.92
2022-09-27T17:24:46.281Z,60.92
2022-09-27T17:27:16.157Z,54.00
2022-09-27T17:29:46.312Z,63.25
2022-09-27T17:32:15.829Z,64.93
2022-09-27T17:34:46.719Z,56.75
2022-09-27T17:37:16.132Z,56.40
2022-09-27T17:39:45.348Z,59.40
2022-09-27T17:42:15.086Z,64.10
2022-09-27T17:44:44.733Z,60.13
2022-09-27T17:47:32.223Z,60.72
2022-09-27T17:50:19.703Z,62.25
2022-09-27T17:52:49.108Z,77.25
2022-09-27T17:55:18.719Z,57.72
2022-09-27T17:57:51.848Z,57.75
2022-09-27T18:00:22.013Z,64.07
2022-09-27T18:02:51.476Z,66.32
2022-09-27T18:05:22.170Z,66.90
2022-09-27T18:07:52.466Z,63.47
2022-09-27T18:10:22.022Z,57.78
2022-09-27T18:12:52.095Z,59.03
2022-09-27T18:15:23.030Z,80.38
2022-09-27T18:17:58.005Z,155.45
2022-09-27T18:20:27.589Z,101.38
2022-09-27T18:22:57.049Z,108.38
2022-09-27T18:25:26.099Z,70.43
2022-09-27T18:27:56.673Z,75.95
2022-09-27T18:30:26.795Z,80.30
2022-09-27T18:32:55.640Z,64.50
2022-09-27T18:35:26.306Z,64.75
2022-09-27T18:37:55.794Z,56.13
2022-09-27T18:40:51.580Z,68.93
2022-09-27T18:43:15.384Z,71.30
2022-09-27T18:45:45.314Z,68.90
2022-09-27T18:48:14.756Z,61.75
2022-09-27T18:50:46.512Z,53.97
2022-09-27T18:53:16.629Z,60.15
2022-09-27T18:55:46.626Z,58.10
2022-09-27T18:58:18.065Z,60.53
2022-09-27T19:00:47.712Z,56.08
2022-09-27T19:03:17.874Z,55.72
2022-09-27T19:06:01.824Z,57.50
2022-09-27T19:08:32.295Z,53.20
2022-09-27T19:11:10.740Z,49.72
2022-09-27T19:13:50.271Z,55.30
2022-09-27T19:16:22.728Z,54.75
2022-09-27T19:18:53.098Z,61.03
2022-09-27T19:21:25.696Z,53.83
2022-09-27T19:26:28.154Z,53.30
2022-09-27T19:29:00.289Z,58.45
2022-09-27T19:31:31.105Z,58.13
2022-09-27T19:34:00.888Z,54.70
2022-09-27T19:36:31.744Z,48.88
2022-09-27T19:39:02.405Z,50.83
2022-09-27T19:41:32.666Z,55.90
2022-09-27T19:44:02.578Z,51.70
2022-09-27T19:46:31.533Z,53.30
2022-09-27T19:49:02.006Z,53.70
2022-09-27T19:51:32.013Z,53.97
2022-09-27T19:54:01.289Z,60.97
2022-09-27T19:56:30.353Z,84.65
2022-09-27T19:59:02.632Z,65.53
2022-09-27T20:01:34.303Z,60.05
2022-09-27T20:04:03.911Z,58.40
2022-09-27T20:06:33.915Z,56.92
2022-09-27T20:09:05.819Z,54.47
2022-09-27T20:11:35.866Z,54.13
2022-09-27T20:14:05.136Z,56.95
2022-09-27T20:16:36.122Z,55.00
2022-09-27T20:19:09.843Z,52.70
2022-09-27T20:21:39.708Z,51.22
2022-09-27T20:24:09.004Z,53.20
2022-09-27T20:26:39.036Z,62.00
2022-09-27T20:29:09.018Z,56.28
2022-09-27T20:32:01.501Z,59.92
2022-09-27T20:34:32.177Z,53.50
2022-09-27T20:37:01.537Z,58.53
2022-09-27T20:39:30.555Z,55.30
2022-09-27T20:41:59.611Z,55.38
2022-09-27T20:44:28.811Z,57.38
2022-09-27T20:46:57.786Z,53.50
2022-09-27T20:49:27.582Z,56.00
2022-09-27T20:51:56.922Z,65.93
2022-09-27T20:54:26.024Z,64.55
2022-09-27T20:56:54.938Z,56.72
2022-09-27T20:59:24.579Z,57.30
2022-09-27T21:01:54.468Z,65.80
2022-09-27T21:04:24.633Z,61.17
2022-09-27T21:06:53.934Z,61.83
2022-09-27T21:09:23.415Z,64.65
2022-09-27T21:11:54.997Z,58.70
2022-09-27T21:14:24.322Z,64.80
2022-09-27T21:16:53.406Z,61.33
2022-09-27T21:19:22.299Z,60.08
2022-09-27T21:21:53.250Z,54.13
2022-09-27T21:24:22.260Z,60.25
2022-09-27T21:26:51.197Z,64.28
2022-09-27T21:29:20.751Z,60.25
2022-09-27T21:31:49.985Z,55.33
2022-09-27T21:34:19.203Z,65.47
2022-09-27T21:36:48.282Z,63.70
2022-09-27T21:39:17.995Z,62.00
2022-09-27T21:41:47.494Z,53.38
2022-09-27T21:44:16.409Z,60.15
2022-09-27T21:46:45.567Z,69.03
2022-09-27T21:49:15.021Z,61.67
2022-09-27T21:51:45.528Z,64.95
2022-09-27T21:54:16.433Z,58.35
2022-09-27T21:56:46.029Z,59.55
2022-09-27T21:59:16.894Z,61.95
2022-09-27T22:01:47.433Z,64.15
2022-09-27T22:04:17.064Z,63.20
2022-09-27T22:06:46.202Z,63.63
2022-09-27T22:09:19.902Z,58.85
2022-09-27T22:11:49.129Z,60.72
2022-09-27T22:14:20.776Z,67.20
2022-09-27T22:16:50.364Z,64.25
2022-09-27T22:19:19.681Z,54.78
2022-09-27T22:21:48.791Z,59.33
2022-09-27T22:24:19.666Z,65.28
2022-09-27T22:26:51.685Z,66.20
2022-09-27T22:29:21.319Z,64.30
2022-09-27T22:31:50.406Z,59.65
2022-09-27T22:34:29.802Z,57.72
2022-09-27T22:37:01.317Z,60.97
2022-09-27T22:39:30.885Z,59.55
2022-09-27T22:41:59.982Z,71.50
2022-09-27T22:44:29.121Z,57.40
2022-09-27T22:46:58.404Z,66.88
2022-09-27T22:49:27.937Z,64.30
2022-09-27T22:51:59.273Z,63.25
2022-09-27T22:54:28.466Z,63.25
2022-09-27T22:56:58.193Z,57.05
2022-09-27T22:59:28.566Z,62.55
2022-09-27T23:01:58.361Z,56.60
2022-09-27T23:04:27.529Z,57.25
2022-09-27T23:06:56.863Z,51.65
2022-09-27T23:09:26.952Z,55.92
2022-09-27T23:11:56.630Z,63.65
2022-09-27T23:14:27.337Z,61.30
2022-09-27T23:16:56.287Z,52.70
2022-09-27T23:19:27.714Z,56.00
2022-09-27T23:21:57.268Z,57.65
2022-09-27T23:24:26.485Z,61.15
2022-09-27T23:27:14.485Z,65.65
2022-09-27T23:29:44.785Z,58.42
2022-09-27T23:32:14.261Z,57.40
2022-09-27T23:34:43.382Z,66.43
2022-09-27T23:37:12.776Z,64.25
2022-09-27T23:39:42.181Z,63.83
2022-09-27T23:42:11.710Z,66.80
2022-09-27T23:44:40.679Z,61.08
2022-09-27T23:47:09.616Z,65.93
2022-09-27T23:49:39.077Z,66.03
2022-09-27T23:52:08.472Z,61.33
2022-09-27T23:54:37.319Z,57.90
2022-09-27T23:57:06.772Z,70.78
2022-09-27T23:59:36.293Z,68.00
